sensor_id;sensor_type;location;lat;lon;timestamp;P1;durP1;ratioP1;P2;durP2;ratioP2
60308;SDS011;50313;52.894;6.492;2023-05-10T00:00:52;3.10;;;2.80;;
60308;SDS011;50313;52.894;6.492;2023-05-10T00:03:18;1.40;;;1.23;;
60308;SDS011;50313;52.894;6.492;2023-05-10T00:05:44;3.22;;;2.10;;
60308;SDS011;50313;52.894;6.492;2023-05-10T00:08:09;2.42;;;1.73;;
60308;SDS011;50313;52.894;6.492;2023-05-10T00:10:35;2.88;;;1.73;;
60308;SDS011;50313;52.894;6.492;2023-05-10T00:13:02;3.05;;;1.55;;
60308;SDS011;50313;52.894;6.492;2023-05-10T00:15:28;1.88;;;1.55;;
60308;SDS011;50313;52.894;6.492;2023-05-10T00:17:56;3.15;;;1.70;;
60308;SDS011;50313;52.894;6.492;2023-05-10T00:20:24;1.20;;;1.10;;
60308;SDS011;50313;52.894;6.492;2023-05-10T00:22:50;1.55;;;1.45;;
60308;SDS011;50313;52.894;6.492;2023-05-10T00:25:16;3.33;;;1.73;;
60308;SDS011;50313;52.894;6.492;2023-05-10T00:27:42;2.28;;;2.00;;
60308;SDS011;50313;52.894;6.492;2023-05-10T00:30:08;2.80;;;2.05;;
60308;SDS011;50313;52.894;6.492;2023-05-10T00:32:33;4.22;;;1.92;;
60308;SDS011;50313;52.894;6.492;2023-05-10T00:34:59;2.63;;;2.17;;
60308;SDS011;50313;52.894;6.492;2023-05-10T00:37:25;2.72;;;1.90;;
60308;SDS011;50313;52.894;6.492;2023-05-10T00:39:51;2.13;;;1.48;;
60308;SDS011;50313;52.894;6.492;2023-05-10T00:42:16;5.53;;;2.00;;
60308;SDS011;50313;52.894;6.492;2023-05-10T00:44:42;3.05;;;1.83;;
60308;SDS011;50313;52.894;6.492;2023-05-10T00:47:08;1.67;;;1.50;;
60308;SDS011;50313;52.894;6.492;2023-05-10T00:49:34;3.40;;;1.95;;
60308;SDS011;50313;52.894;6.492;2023-05-10T00:52:01;1.77;;;1.17;;
60308;SDS011;50313;52.894;6.492;2023-05-10T00:54:28;2.33;;;1.70;;
60308;SDS011;50313;52.894;6.492;2023-05-10T00:56:54;1.48;;;1.38;;
60308;SDS011;50313;52.894;6.492;2023-05-10T00:59:21;6.13;;;2.75;;
60308;SDS011;50313;52.894;6.492;2023-05-10T01:01:47;2.67;;;1.85;;
60308;SDS011;50313;52.894;6.492;2023-05-10T01:04:13;5.07;;;2.30;;
60308;SDS011;50313;52.894;6.492;2023-05-10T01:06:43;11.23;;;1.73;;
60308;SDS011;50313;52.894;6.492;2023-05-10T01:09:09;2.30;;;1.92;;
60308;SDS011;50313;52.894;6.492;2023-05-10T01:11:36;1.73;;;1.60;;
60308;SDS011;50313;52.894;6.492;2023-05-10T01:14:04;2.63;;;2.10;;
60308;SDS011;50313;52.894;6.492;2023-05-10T01:16:38;2.42;;;2.00;;
60308;SDS011;50313;52.894;6.492;2023-05-10T01:25:04;2.25;;;2.03;;
60308;SDS011;50313;52.894;6.492;2023-05-10T01:33:23;3.70;;;2.33;;
60308;SDS011;50313;52.894;6.492;2023-05-10T01:38:29;1.25;;;1.02;;
60308;SDS011;50313;52.894;6.492;2023-05-10T01:43:31;1.88;;;1.33;;
60308;SDS011;50313;52.894;6.492;2023-05-10T01:46:04;1.50;;;1.40;;
60308;SDS011;50313;52.894;6.492;2023-05-10T01:48:40;1.15;;;1.13;;
60308;SDS011;50313;52.894;6.492;2023-05-10T01:51:13;2.25;;;2.15;;
60308;SDS011;50313;52.894;6.492;2023-05-10T01:53:41;2.47;;;1.27;;
60308;SDS011;50313;52.894;6.492;2023-05-10T01:56:09;2.17;;;1.90;;
60308;SDS011;50313;52.894;6.492;2023-05-10T01:58:37;0.70;;;0.70;;
60308;SDS011;50313;52.894;6.492;2023-05-10T02:01:05;3.60;;;2.20;;
60308;SDS011;50313;52.894;6.492;2023-05-10T02:03:33;1.83;;;1.67;;
60308;SDS011;50313;52.894;6.492;2023-05-10T02:06:01;2.20;;;1.33;;
60308;SDS011;50313;52.894;6.492;2023-05-10T02:08:29;2.70;;;1.52;;
60308;SDS011;50313;52.894;6.492;2023-05-10T02:10:56;2.40;;;1.85;;
60308;SDS011;50313;52.894;6.492;2023-05-10T02:13:24;2.58;;;2.35;;
60308;SDS011;50313;52.894;6.492;2023-05-10T02:15:52;1.98;;;1.77;;
60308;SDS011;50313;52.894;6.492;2023-05-10T02:18:19;2.78;;;2.40;;
60308;SDS011;50313;52.894;6.492;2023-05-10T02:20:47;0.82;;;0.82;;
60308;SDS011;50313;52.894;6.492;2023-05-10T02:23:13;3.75;;;2.13;;
60308;SDS011;50313;52.894;6.492;2023-05-10T02:25:41;2.25;;;1.75;;
60308;SDS011;50313;52.894;6.492;2023-05-10T02:28:08;1.95;;;1.10;;
60308;SDS011;50313;52.894;6.492;2023-05-10T02:30:36;2.90;;;1.88;;
60308;SDS011;50313;52.894;6.492;2023-05-10T02:33:03;25.40;;;2.55;;
60308;SDS011;50313;52.894;6.492;2023-05-10T02:35:30;6.07;;;1.27;;
60308;SDS011;50313;52.894;6.492;2023-05-10T02:37:58;2.38;;;2.05;;
60308;SDS011;50313;52.894;6.492;2023-05-10T02:40:26;2.90;;;1.30;;
60308;SDS011;50313;52.894;6.492;2023-05-10T02:42:54;2.72;;;1.38;;
60308;SDS011;50313;52.894;6.492;2023-05-10T02:45:23;1.55;;;1.30;;
60308;SDS011;50313;52.894;6.492;2023-05-10T02:47:53;1.10;;;1.05;;
60308;SDS011;50313;52.894;6.492;2023-05-10T02:50:19;1.77;;;1.38;;
60308;SDS011;50313;52.894;6.492;2023-05-10T02:52:46;1.83;;;1.13;;
60308;SDS011;50313;52.894;6.492;2023-05-10T02:55:15;2.58;;;1.75;;
60308;SDS011;50313;52.894;6.492;2023-05-10T02:57:55;1.52;;;1.42;;
60308;SDS011;50313;52.894;6.492;2023-05-10T03:00:24;1.25;;;1.25;;
60308;SDS011;50313;52.894;6.492;2023-05-10T03:02:50;1.42;;;1.33;;
60308;SDS011;50313;52.894;6.492;2023-05-10T03:05:15;1.83;;;1.30;;
60308;SDS011;50313;52.894;6.492;2023-05-10T03:07:42;2.08;;;1.30;;
60308;SDS011;50313;52.894;6.492;2023-05-10T03:10:08;1.33;;;1.23;;
60308;SDS011;50313;52.894;6.492;2023-05-10T03:15:22;4.55;;;1.00;;
60308;SDS011;50313;52.894;6.492;2023-05-10T03:18:20;2.10;;;1.65;;
60308;SDS011;50313;52.894;6.492;2023-05-10T03:20:48;2.03;;;1.90;;
60308;SDS011;50313;52.894;6.492;2023-05-10T03:26:26;2.53;;;1.35;;
60308;SDS011;50313;52.894;6.492;2023-05-10T03:28:53;2.47;;;1.17;;
60308;SDS011;50313;52.894;6.492;2023-05-10T03:31:20;1.95;;;1.45;;
60308;SDS011;50313;52.894;6.492;2023-05-10T03:33:47;1.30;;;0.70;;
60308;SDS011;50313;52.894;6.492;2023-05-10T03:36:16;2.20;;;1.85;;
60308;SDS011;50313;52.894;6.492;2023-05-10T03:38:42;1.55;;;0.60;;
60308;SDS011;50313;52.894;6.492;2023-05-10T03:41:08;0.95;;;0.90;;
60308;SDS011;50313;52.894;6.492;2023-05-10T03:43:45;0.95;;;0.93;;
60308;SDS011;50313;52.894;6.492;2023-05-10T03:46:34;2.53;;;1.52;;
60308;SDS011;50313;52.894;6.492;2023-05-10T03:49:00;1.10;;;1.05;;
60308;SDS011;50313;52.894;6.492;2023-05-10T03:51:28;1.95;;;0.95;;
60308;SDS011;50313;52.894;6.492;2023-05-10T03:53:56;1.52;;;1.40;;
60308;SDS011;50313;52.894;6.492;2023-05-10T03:56:22;1.77;;;1.67;;
60308;SDS011;50313;52.894;6.492;2023-05-10T03:58:47;1.73;;;1.63;;
60308;SDS011;50313;52.894;6.492;2023-05-10T04:01:13;1.98;;;1.65;;
60308;SDS011;50313;52.894;6.492;2023-05-10T04:03:39;1.48;;;1.15;;
60308;SDS011;50313;52.894;6.492;2023-05-10T04:06:05;1.38;;;1.27;;
60308;SDS011;50313;52.894;6.492;2023-05-10T04:08:33;2.33;;;1.35;;
60308;SDS011;50313;52.894;6.492;2023-05-10T04:11:08;1.65;;;1.40;;
60308;SDS011;50313;52.894;6.492;2023-05-10T04:13:36;2.05;;;1.95;;
60308;SDS011;50313;52.894;6.492;2023-05-10T04:16:02;1.05;;;0.98;;
60308;SDS011;50313;52.894;6.492;2023-05-10T04:18:28;2.45;;;1.58;;
60308;SDS011;50313;52.894;6.492;2023-05-10T04:20:53;2.45;;;2.25;;
60308;SDS011;50313;52.894;6.492;2023-05-10T04:23:19;1.73;;;1.60;;
60308;SDS011;50313;52.894;6.492;2023-05-10T04:25:45;0.95;;;0.95;;
60308;SDS011;50313;52.894;6.492;2023-05-10T04:28:10;0.63;;;0.63;;
60308;SDS011;50313;52.894;6.492;2023-05-10T04:30:36;1.30;;;1.20;;
60308;SDS011;50313;52.894;6.492;2023-05-10T04:33:02;3.55;;;1.60;;
60308;SDS011;50313;52.894;6.492;2023-05-10T04:35:28;2.05;;;1.80;;
60308;SDS011;50313;52.894;6.492;2023-05-10T04:37:54;1.80;;;1.55;;
60308;SDS011;50313;52.894;6.492;2023-05-10T04:40:20;1.75;;;1.40;;
60308;SDS011;50313;52.894;6.492;2023-05-10T04:46:27;1.38;;;1.27;;
60308;SDS011;50313;52.894;6.492;2023-05-10T04:48:52;0.57;;;0.57;;
60308;SDS011;50313;52.894;6.492;2023-05-10T04:51:18;1.08;;;1.05;;
60308;SDS011;50313;52.894;6.492;2023-05-10T04:53:48;4.45;;;1.67;;
60308;SDS011;50313;52.894;6.492;2023-05-10T04:56:13;1.75;;;1.60;;
60308;SDS011;50313;52.894;6.492;2023-05-10T04:58:39;1.50;;;0.75;;
60308;SDS011;50313;52.894;6.492;2023-05-10T05:01:08;2.22;;;1.65;;
60308;SDS011;50313;52.894;6.492;2023-05-10T05:03:35;1.17;;;0.82;;
60308;SDS011;50313;52.894;6.492;2023-05-10T05:06:02;0.50;;;0.50;;
60308;SDS011;50313;52.894;6.492;2023-05-10T05:08:28;1.40;;;0.98;;
60308;SDS011;50313;52.894;6.492;2023-05-10T05:10:54;1.67;;;1.25;;
60308;SDS011;50313;52.894;6.492;2023-05-10T05:13:20;2.60;;;1.20;;
60308;SDS011;50313;52.894;6.492;2023-05-10T05:15:45;2.05;;;0.73;;
60308;SDS011;50313;52.894;6.492;2023-05-10T05:18:11;1.48;;;1.38;;
60308;SDS011;50313;52.894;6.492;2023-05-10T05:20:37;1.13;;;1.02;;
60308;SDS011;50313;52.894;6.492;2023-05-10T05:23:03;3.42;;;1.80;;
60308;SDS011;50313;52.894;6.492;2023-05-10T05:25:28;1.27;;;1.15;;
60308;SDS011;50313;52.894;6.492;2023-05-10T05:27:54;0.90;;;0.90;;
60308;SDS011;50313;52.894;6.492;2023-05-10T05:30:20;0.68;;;0.68;;
60308;SDS011;50313;52.894;6.492;2023-05-10T05:32:46;1.52;;;1.42;;
60308;SDS011;50313;52.894;6.492;2023-05-10T05:35:12;4.20;;;2.10;;
60308;SDS011;50313;52.894;6.492;2023-05-10T05:37:38;2.40;;;1.38;;
60308;SDS011;50313;52.894;6.492;2023-05-10T05:40:05;5.50;;;2.17;;
60308;SDS011;50313;52.894;6.492;2023-05-10T05:42:31;1.25;;;0.88;;
60308;SDS011;50313;52.894;6.492;2023-05-10T05:44:57;0.55;;;0.55;;
60308;SDS011;50313;52.894;6.492;2023-05-10T05:47:23;1.83;;;0.90;;
60308;SDS011;50313;52.894;6.492;2023-05-10T05:49:49;1.17;;;1.08;;
60308;SDS011;50313;52.894;6.492;2023-05-10T05:52:14;3.17;;;1.75;;
60308;SDS011;50313;52.894;6.492;2023-05-10T05:54:41;0.85;;;0.70;;
60308;SDS011;50313;52.894;6.492;2023-05-10T05:57:06;1.63;;;1.52;;
60308;SDS011;50313;52.894;6.492;2023-05-10T05:59:32;2.33;;;1.88;;
60308;SDS011;50313;52.894;6.492;2023-05-10T06:01:58;1.80;;;0.85;;
60308;SDS011;50313;52.894;6.492;2023-05-10T06:04:24;1.48;;;1.15;;
60308;SDS011;50313;52.894;6.492;2023-05-10T06:06:49;0.55;;;0.55;;
60308;SDS011;50313;52.894;6.492;2023-05-10T06:09:15;2.13;;;1.30;;
60308;SDS011;50313;52.894;6.492;2023-05-10T06:11:41;0.73;;;0.73;;
60308;SDS011;50313;52.894;6.492;2023-05-10T06:14:07;1.08;;;0.88;;
60308;SDS011;50313;52.894;6.492;2023-05-10T06:16:33;2.75;;;0.95;;
60308;SDS011;50313;52.894;6.492;2023-05-10T06:18:59;0.63;;;0.63;;
60308;SDS011;50313;52.894;6.492;2023-05-10T06:21:25;1.88;;;0.73;;
60308;SDS011;50313;52.894;6.492;2023-05-10T06:23:51;1.42;;;0.82;;
60308;SDS011;50313;52.894;6.492;2023-05-10T06:26:16;1.90;;;1.60;;
60308;SDS011;50313;52.894;6.492;2023-05-10T06:28:42;0.98;;;0.60;;
60308;SDS011;50313;52.894;6.492;2023-05-10T06:31:08;1.17;;;1.05;;
60308;SDS011;50313;52.894;6.492;2023-05-10T06:33:33;1.08;;;0.93;;
60308;SDS011;50313;52.894;6.492;2023-05-10T06:35:59;0.85;;;0.77;;
60308;SDS011;50313;52.894;6.492;2023-05-10T06:38:25;2.50;;;1.33;;
60308;SDS011;50313;52.894;6.492;2023-05-10T06:40:51;1.13;;;1.13;;
60308;SDS011;50313;52.894;6.492;2023-05-10T06:43:17;0.90;;;0.90;;
60308;SDS011;50313;52.894;6.492;2023-05-10T06:45:43;1.63;;;0.50;;
60308;SDS011;50313;52.894;6.492;2023-05-10T06:48:08;0.30;;;0.30;;
60308;SDS011;50313;52.894;6.492;2023-05-10T06:50:34;1.27;;;1.17;;
60308;SDS011;50313;52.894;6.492;2023-05-10T06:53:00;0.77;;;0.77;;
60308;SDS011;50313;52.894;6.492;2023-05-10T06:55:29;0.40;;;0.32;;
60308;SDS011;50313;52.894;6.492;2023-05-10T06:57:55;1.13;;;1.08;;
60308;SDS011;50313;52.894;6.492;2023-05-10T07:00:20;0.45;;;0.45;;
60308;SDS011;50313;52.894;6.492;2023-05-10T07:02:46;0.65;;;0.65;;
60308;SDS011;50313;52.894;6.492;2023-05-10T07:05:12;0.30;;;0.30;;
60308;SDS011;50313;52.894;6.492;2023-05-10T07:07:39;1.02;;;0.63;;
60308;SDS011;50313;52.894;6.492;2023-05-10T07:10:05;0.30;;;0.30;;
60308;SDS011;50313;52.894;6.492;2023-05-10T07:12:32;0.52;;;0.52;;
60308;SDS011;50313;52.894;6.492;2023-05-10T07:14:58;0.57;;;0.57;;
60308;SDS011;50313;52.894;6.492;2023-05-10T07:17:24;0.70;;;0.70;;
60308;SDS011;50313;52.894;6.492;2023-05-10T07:19:50;0.88;;;0.70;;
60308;SDS011;50313;52.894;6.492;2023-05-10T07:22:15;0.65;;;0.60;;
60308;SDS011;50313;52.894;6.492;2023-05-10T07:24:41;0.50;;;0.50;;
60308;SDS011;50313;52.894;6.492;2023-05-10T07:27:07;0.93;;;0.75;;
60308;SDS011;50313;52.894;6.492;2023-05-10T07:29:34;0.73;;;0.70;;
60308;SDS011;50313;52.894;6.492;2023-05-10T07:32:00;0.88;;;0.82;;
60308;SDS011;50313;52.894;6.492;2023-05-10T07:34:26;0.55;;;0.55;;
60308;SDS011;50313;52.894;6.492;2023-05-10T07:36:52;0.30;;;0.30;;
60308;SDS011;50313;52.894;6.492;2023-05-10T07:39:18;0.45;;;0.45;;
60308;SDS011;50313;52.894;6.492;2023-05-10T07:41:45;0.45;;;0.45;;
60308;SDS011;50313;52.894;6.492;2023-05-10T07:44:11;1.02;;;0.98;;
60308;SDS011;50313;52.894;6.492;2023-05-10T07:46:37;0.25;;;0.25;;
60308;SDS011;50313;52.894;6.492;2023-05-10T07:49:03;0.38;;;0.38;;
60308;SDS011;50313;52.894;6.492;2023-05-10T07:51:29;1.02;;;0.98;;
60308;SDS011;50313;52.894;6.492;2023-05-10T07:53:55;1.30;;;0.47;;
60308;SDS011;50313;52.894;6.492;2023-05-10T07:56:26;0.32;;;0.32;;
60308;SDS011;50313;52.894;6.492;2023-05-10T07:58:57;0.73;;;0.73;;
60308;SDS011;50313;52.894;6.492;2023-05-10T08:01:23;1.67;;;1.00;;
60308;SDS011;50313;52.894;6.492;2023-05-10T08:03:49;0.93;;;0.50;;
60308;SDS011;50313;52.894;6.492;2023-05-10T08:06:17;1.02;;;0.93;;
60308;SDS011;50313;52.894;6.492;2023-05-10T08:08:43;1.23;;;0.80;;
60308;SDS011;50313;52.894;6.492;2023-05-10T08:11:14;0.73;;;0.73;;
60308;SDS011;50313;52.894;6.492;2023-05-10T08:13:43;4.43;;;0.90;;
60308;SDS011;50313;52.894;6.492;2023-05-10T08:16:09;1.02;;;1.02;;
60308;SDS011;50313;52.894;6.492;2023-05-10T08:18:35;1.17;;;0.50;;
60308;SDS011;50313;52.894;6.492;2023-05-10T08:21:02;0.85;;;0.70;;
60308;SDS011;50313;52.894;6.492;2023-05-10T08:23:28;0.60;;;0.60;;
60308;SDS011;50313;52.894;6.492;2023-05-10T08:25:53;0.65;;;0.63;;
60308;SDS011;50313;52.894;6.492;2023-05-10T08:28:19;0.60;;;0.60;;
60308;SDS011;50313;52.894;6.492;2023-05-10T08:30:45;0.47;;;0.47;;
60308;SDS011;50313;52.894;6.492;2023-05-10T08:33:10;1.13;;;0.50;;
60308;SDS011;50313;52.894;6.492;2023-05-10T08:35:36;0.80;;;0.80;;
60308;SDS011;50313;52.894;6.492;2023-05-10T08:38:02;0.82;;;0.75;;
60308;SDS011;50313;52.894;6.492;2023-05-10T08:40:28;0.38;;;0.38;;
60308;SDS011;50313;52.894;6.492;2023-05-10T08:42:55;1.15;;;0.93;;
60308;SDS011;50313;52.894;6.492;2023-05-10T08:45:33;1.33;;;0.88;;
60308;SDS011;50313;52.894;6.492;2023-05-10T08:48:03;1.20;;;1.00;;
60308;SDS011;50313;52.894;6.492;2023-05-10T08:50:30;1.45;;;1.17;;
60308;SDS011;50313;52.894;6.492;2023-05-10T08:52:57;0.80;;;0.80;;
60308;SDS011;50313;52.894;6.492;2023-05-10T08:55:26;1.13;;;0.68;;
60308;SDS011;50313;52.894;6.492;2023-05-10T08:57:53;1.33;;;0.90;;
60308;SDS011;50313;52.894;6.492;2023-05-10T09:00:19;0.82;;;0.82;;
60308;SDS011;50313;52.894;6.492;2023-05-10T09:02:45;0.98;;;0.70;;
60308;SDS011;50313;52.894;6.492;2023-05-10T09:05:11;0.88;;;0.88;;
60308;SDS011;50313;52.894;6.492;2023-05-10T09:07:37;1.83;;;0.70;;
60308;SDS011;50313;52.894;6.492;2023-05-10T09:10:04;0.50;;;0.50;;
60308;SDS011;50313;52.894;6.492;2023-05-10T09:12:30;2.00;;;0.70;;
60308;SDS011;50313;52.894;6.492;2023-05-10T09:14:56;0.68;;;0.55;;
60308;SDS011;50313;52.894;6.492;2023-05-10T09:17:24;2.35;;;0.85;;
60308;SDS011;50313;52.894;6.492;2023-05-10T09:20:02;1.38;;;0.93;;
60308;SDS011;50313;52.894;6.492;2023-05-10T09:22:32;1.77;;;1.08;;
60308;SDS011;50313;52.894;6.492;2023-05-10T09:25:08;0.85;;;0.80;;
60308;SDS011;50313;52.894;6.492;2023-05-10T09:27:39;2.25;;;1.58;;
60308;SDS011;50313;52.894;6.492;2023-05-10T09:30:06;1.85;;;1.20;;
60308;SDS011;50313;52.894;6.492;2023-05-10T09:32:45;2.72;;;1.50;;
60308;SDS011;50313;52.894;6.492;2023-05-10T09:35:17;3.95;;;1.45;;
60308;SDS011;50313;52.894;6.492;2023-05-10T09:37:48;2.40;;;1.15;;
60308;SDS011;50313;52.894;6.492;2023-05-10T09:40:25;1.23;;;1.08;;
60308;SDS011;50313;52.894;6.492;2023-05-10T09:43:05;1.88;;;1.48;;
60308;SDS011;50313;52.894;6.492;2023-05-10T09:45:33;1.17;;;0.90;;
60308;SDS011;50313;52.894;6.492;2023-05-10T09:48:01;1.45;;;1.10;;
60308;SDS011;50313;52.894;6.492;2023-05-10T09:50:28;0.82;;;0.65;;
60308;SDS011;50313;52.894;6.492;2023-05-10T09:52:55;1.50;;;1.05;;
60308;SDS011;50313;52.894;6.492;2023-05-10T09:55:24;2.30;;;1.42;;
60308;SDS011;50313;52.894;6.492;2023-05-10T09:58:02;1.48;;;1.33;;
60308;SDS011;50313;52.894;6.492;2023-05-10T10:00:34;0.88;;;0.88;;
60308;SDS011;50313;52.894;6.492;2023-05-10T10:03:17;1.67;;;1.50;;
60308;SDS011;50313;52.894;6.492;2023-05-10T10:05:45;2.13;;;1.40;;
60308;SDS011;50313;52.894;6.492;2023-05-10T10:08:12;2.97;;;1.45;;
60308;SDS011;50313;52.894;6.492;2023-05-10T10:10:39;2.05;;;1.23;;
60308;SDS011;50313;52.894;6.492;2023-05-10T10:13:06;1.85;;;1.30;;
60308;SDS011;50313;52.894;6.492;2023-05-10T10:15:32;1.35;;;0.90;;
60308;SDS011;50313;52.894;6.492;2023-05-10T10:17:59;1.58;;;1.25;;
60308;SDS011;50313;52.894;6.492;2023-05-10T10:20:25;12.75;;;1.10;;
60308;SDS011;50313;52.894;6.492;2023-05-10T10:22:52;2.60;;;1.33;;
60308;SDS011;50313;52.894;6.492;2023-05-10T10:25:18;2.50;;;1.30;;
60308;SDS011;50313;52.894;6.492;2023-05-10T10:35:32;1.20;;;0.70;;
60308;SDS011;50313;52.894;6.492;2023-05-10T10:37:59;1.58;;;1.38;;
60308;SDS011;50313;52.894;6.492;2023-05-10T10:40:32;1.75;;;0.90;;
60308;SDS011;50313;52.894;6.492;2023-05-10T10:48:36;2.58;;;1.52;;
60308;SDS011;50313;52.894;6.492;2023-05-10T10:51:02;1.20;;;1.00;;
60308;SDS011;50313;52.894;6.492;2023-05-10T10:53:28;1.30;;;1.08;;
60308;SDS011;50313;52.894;6.492;2023-05-10T10:56:07;2.78;;;1.48;;
60308;SDS011;50313;52.894;6.492;2023-05-10T10:58:35;1.67;;;1.15;;
60308;SDS011;50313;52.894;6.492;2023-05-10T11:01:36;1.92;;;1.40;;
60308;SDS011;50313;52.894;6.492;2023-05-10T11:06:29;4.22;;;1.55;;
60308;SDS011;50313;52.894;6.492;2023-05-10T11:08:59;2.28;;;1.50;;
60308;SDS011;50313;52.894;6.492;2023-05-10T11:11:32;1.90;;;1.17;;
60308;SDS011;50313;52.894;6.492;2023-05-10T11:14:03;5.63;;;1.83;;
60308;SDS011;50313;52.894;6.492;2023-05-10T11:16:40;2.90;;;1.60;;
60308;SDS011;50313;52.894;6.492;2023-05-10T11:19:09;2.83;;;1.90;;
60308;SDS011;50313;52.894;6.492;2023-05-10T11:24:15;3.00;;;1.48;;
60308;SDS011;50313;52.894;6.492;2023-05-10T11:26:49;3.50;;;1.92;;
60308;SDS011;50313;52.894;6.492;2023-05-10T11:29:17;13.82;;;2.22;;
60308;SDS011;50313;52.894;6.492;2023-05-10T11:31:44;4.28;;;2.10;;
60308;SDS011;50313;52.894;6.492;2023-05-10T11:34:10;4.85;;;2.38;;
60308;SDS011;50313;52.894;6.492;2023-05-10T11:36:37;2.67;;;2.17;;
60308;SDS011;50313;52.894;6.492;2023-05-10T11:39:06;5.95;;;2.72;;
60308;SDS011;50313;52.894;6.492;2023-05-10T11:41:35;2.10;;;1.50;;
60308;SDS011;50313;52.894;6.492;2023-05-10T11:44:00;2.67;;;1.30;;
60308;SDS011;50313;52.894;6.492;2023-05-10T11:46:27;2.97;;;1.77;;
60308;SDS011;50313;52.894;6.492;2023-05-10T11:48:56;4.20;;;1.48;;
60308;SDS011;50313;52.894;6.492;2023-05-10T11:51:26;3.40;;;2.03;;
60308;SDS011;50313;52.894;6.492;2023-05-10T11:53:53;2.13;;;1.60;;
60308;SDS011;50313;52.894;6.492;2023-05-10T11:56:20;3.45;;;2.45;;
60308;SDS011;50313;52.894;6.492;2023-05-10T11:58:52;5.18;;;2.05;;
60308;SDS011;50313;52.894;6.492;2023-05-10T12:01:20;3.00;;;2.25;;
60308;SDS011;50313;52.894;6.492;2023-05-10T12:03:47;6.20;;;2.95;;
60308;SDS011;50313;52.894;6.492;2023-05-10T12:06:13;2.28;;;1.63;;
60308;SDS011;50313;52.894;6.492;2023-05-10T12:08:46;4.72;;;2.28;;
60308;SDS011;50313;52.894;6.492;2023-05-10T12:11:15;2.80;;;1.58;;
60308;SDS011;50313;52.894;6.492;2023-05-10T12:13:42;5.28;;;1.80;;
60308;SDS011;50313;52.894;6.492;2023-05-10T12:18:50;2.28;;;1.33;;
60308;SDS011;50313;52.894;6.492;2023-05-10T12:21:17;7.63;;;1.67;;
60308;SDS011;50313;52.894;6.492;2023-05-10T12:23:45;2.25;;;1.75;;
60308;SDS011;50313;52.894;6.492;2023-05-10T12:26:12;2.33;;;1.83;;
60308;SDS011;50313;52.894;6.492;2023-05-10T12:28:37;2.20;;;1.20;;
60308;SDS011;50313;52.894;6.492;2023-05-10T12:31:05;3.28;;;1.88;;
60308;SDS011;50313;52.894;6.492;2023-05-10T12:33:38;6.07;;;1.73;;
60308;SDS011;50313;52.894;6.492;2023-05-10T12:36:06;2.17;;;1.85;;
60308;SDS011;50313;52.894;6.492;2023-05-10T12:38:42;5.88;;;2.22;;
60308;SDS011;50313;52.894;6.492;2023-05-10T12:41:13;3.42;;;1.92;;
60308;SDS011;50313;52.894;6.492;2023-05-10T12:43:40;5.57;;;1.70;;
60308;SDS011;50313;52.894;6.492;2023-05-10T12:46:07;4.32;;;2.42;;
60308;SDS011;50313;52.894;6.492;2023-05-10T12:48:35;3.08;;;1.70;;
60308;SDS011;50313;52.894;6.492;2023-05-10T12:51:01;9.90;;;3.42;;
60308;SDS011;50313;52.894;6.492;2023-05-10T12:53:28;4.13;;;2.60;;
60308;SDS011;50313;52.894;6.492;2023-05-10T12:55:53;5.70;;;2.85;;
60308;SDS011;50313;52.894;6.492;2023-05-10T12:58:19;7.38;;;3.40;;
60308;SDS011;50313;52.894;6.492;2023-05-10T13:00:45;10.15;;;2.35;;
60308;SDS011;50313;52.894;6.492;2023-05-10T13:03:12;5.75;;;2.47;;
60308;SDS011;50313;52.894;6.492;2023-05-10T13:05:37;7.68;;;2.47;;
60308;SDS011;50313;52.894;6.492;2023-05-10T13:08:03;5.43;;;2.72;;
60308;SDS011;50313;52.894;6.492;2023-05-10T13:10:30;5.10;;;2.55;;
60308;SDS011;50313;52.894;6.492;2023-05-10T13:12:57;4.93;;;2.53;;
60308;SDS011;50313;52.894;6.492;2023-05-10T13:15:23;4.18;;;2.08;;
60308;SDS011;50313;52.894;6.492;2023-05-10T13:17:49;6.78;;;3.22;;
60308;SDS011;50313;52.894;6.492;2023-05-10T13:20:15;7.30;;;2.50;;
60308;SDS011;50313;52.894;6.492;2023-05-10T13:22:41;8.48;;;3.35;;
60308;SDS011;50313;52.894;6.492;2023-05-10T13:25:08;5.40;;;2.65;;
60308;SDS011;50313;52.894;6.492;2023-05-10T13:27:34;8.45;;;3.03;;
60308;SDS011;50313;52.894;6.492;2023-05-10T13:30:00;11.13;;;3.40;;
60308;SDS011;50313;52.894;6.492;2023-05-10T13:32:29;6.97;;;2.97;;
60308;SDS011;50313;52.894;6.492;2023-05-10T13:34:55;6.63;;;3.35;;
60308;SDS011;50313;52.894;6.492;2023-05-10T13:37:21;9.07;;;3.22;;
60308;SDS011;50313;52.894;6.492;2023-05-10T13:39:47;6.68;;;3.35;;
60308;SDS011;50313;52.894;6.492;2023-05-10T13:42:13;9.82;;;3.13;;
60308;SDS011;50313;52.894;6.492;2023-05-10T13:44:39;8.75;;;3.05;;
60308;SDS011;50313;52.894;6.492;2023-05-10T13:47:05;9.10;;;2.85;;
60308;SDS011;50313;52.894;6.492;2023-05-10T13:49:31;5.10;;;2.35;;
60308;SDS011;50313;52.894;6.492;2023-05-10T13:51:57;7.35;;;3.53;;
60308;SDS011;50313;52.894;6.492;2023-05-10T13:54:23;6.88;;;4.57;;
60308;SDS011;50313;52.894;6.492;2023-05-10T13:56:49;7.38;;;3.72;;
60308;SDS011;50313;52.894;6.492;2023-05-10T13:59:15;5.97;;;3.13;;
60308;SDS011;50313;52.894;6.492;2023-05-10T14:01:41;8.23;;;3.22;;
60308;SDS011;50313;52.894;6.492;2023-05-10T14:04:08;10.90;;;3.58;;
60308;SDS011;50313;52.894;6.492;2023-05-10T14:06:36;8.07;;;2.90;;
60308;SDS011;50313;52.894;6.492;2023-05-10T14:09:02;5.57;;;3.17;;
60308;SDS011;50313;52.894;6.492;2023-05-10T14:11:28;4.65;;;2.63;;
60308;SDS011;50313;52.894;6.492;2023-05-10T14:13:54;7.25;;;3.08;;
60308;SDS011;50313;52.894;6.492;2023-05-10T14:16:20;6.68;;;2.78;;
60308;SDS011;50313;52.894;6.492;2023-05-10T14:18:46;7.78;;;3.45;;
60308;SDS011;50313;52.894;6.492;2023-05-10T14:21:12;6.57;;;3.28;;
60308;SDS011;50313;52.894;6.492;2023-05-10T14:23:38;7.40;;;3.15;;
60308;SDS011;50313;52.894;6.492;2023-05-10T14:26:04;3.80;;;2.50;;
60308;SDS011;50313;52.894;6.492;2023-05-10T14:28:30;6.35;;;2.85;;
60308;SDS011;50313;52.894;6.492;2023-05-10T14:30:55;8.30;;;3.85;;
60308;SDS011;50313;52.894;6.492;2023-05-10T14:33:21;9.77;;;2.88;;
60308;SDS011;50313;52.894;6.492;2023-05-10T14:35:47;6.35;;;2.97;;
60308;SDS011;50313;52.894;6.492;2023-05-10T14:38:15;6.60;;;3.70;;
60308;SDS011;50313;52.894;6.492;2023-05-10T14:40:44;4.10;;;2.42;;
60308;SDS011;50313;52.894;6.492;2023-05-10T14:43:11;4.25;;;2.65;;
60308;SDS011;50313;52.894;6.492;2023-05-10T14:45:37;7.32;;;3.38;;
60308;SDS011;50313;52.894;6.492;2023-05-10T14:48:03;8.35;;;3.00;;
60308;SDS011;50313;52.894;6.492;2023-05-10T14:50:30;4.43;;;2.53;;
60308;SDS011;50313;52.894;6.492;2023-05-10T14:52:56;6.32;;;3.15;;
60308;SDS011;50313;52.894;6.492;2023-05-10T14:55:22;7.25;;;2.65;;
60308;SDS011;50313;52.894;6.492;2023-05-10T14:57:48;5.90;;;3.38;;
60308;SDS011;50313;52.894;6.492;2023-05-10T15:00:15;9.98;;;3.05;;
60308;SDS011;50313;52.894;6.492;2023-05-10T15:02:42;7.10;;;3.60;;
60308;SDS011;50313;52.894;6.492;2023-05-10T15:05:07;6.75;;;2.78;;
60308;SDS011;50313;52.894;6.492;2023-05-10T15:07:33;5.50;;;3.53;;
60308;SDS011;50313;52.894;6.492;2023-05-10T15:09:59;3.67;;;2.58;;
60308;SDS011;50313;52.894;6.492;2023-05-10T15:12:25;9.55;;;3.22;;
60308;SDS011;50313;52.894;6.492;2023-05-10T15:14:51;5.68;;;2.95;;
60308;SDS011;50313;52.894;6.492;2023-05-10T15:17:17;5.20;;;2.78;;
60308;SDS011;50313;52.894;6.492;2023-05-10T15:19:43;6.03;;;2.95;;
60308;SDS011;50313;52.894;6.492;2023-05-10T15:22:08;4.07;;;2.63;;
60308;SDS011;50313;52.894;6.492;2023-05-10T15:24:34;5.57;;;2.95;;
60308;SDS011;50313;52.894;6.492;2023-05-10T15:27:00;4.95;;;2.65;;
60308;SDS011;50313;52.894;6.492;2023-05-10T15:29:26;4.82;;;2.15;;
60308;SDS011;50313;52.894;6.492;2023-05-10T15:31:51;8.52;;;3.58;;
60308;SDS011;50313;52.894;6.492;2023-05-10T15:34:17;4.93;;;2.67;;
60308;SDS011;50313;52.894;6.492;2023-05-10T15:36:44;8.02;;;3.58;;